createdAt,value
2019-03-25T00:02:27.463Z,10.80
2019-03-25T00:05:00.632Z,11.97
2019-03-25T00:07:33.666Z,8.30
2019-03-25T00:10:07.208Z,8.27
2019-03-25T00:12:40.503Z,12.33
2019-03-25T00:15:13.863Z,10.13
2019-03-25T00:17:47.022Z,10.50
2019-03-25T00:20:20.104Z,11.90
2019-03-25T00:22:53.425Z,10.03
2019-03-25T00:25:26.800Z,15.50
2019-03-25T00:28:00.324Z,8.40
2019-03-25T00:30:33.317Z,11.20
2019-03-25T00:33:06.609Z,11.00
2019-03-25T00:35:39.702Z,8.53
2019-03-25T00:38:12.813Z,13.10
2019-03-25T00:40:45.724Z,8.57
2019-03-25T00:43:19.128Z,10.40
2019-03-25T00:45:52.359Z,15.90
2019-03-25T00:48:25.467Z,8.87
2019-03-25T00:50:58.620Z,8.33
2019-03-25T00:53:31.860Z,12.03
2019-03-25T00:56:07.863Z,11.07
2019-03-25T00:58:40.973Z,10.10
2019-03-25T01:01:14.332Z,10.77
2019-03-25T01:03:47.396Z,9.43
2019-03-25T01:06:20.693Z,13.70
2019-03-25T01:08:53.652Z,5.87
2019-03-25T01:11:27.125Z,15.70
2019-03-25T01:13:59.845Z,12.37
2019-03-25T01:16:32.775Z,10.73
2019-03-25T01:19:05.629Z,9.67
2019-03-25T01:21:38.492Z,9.07
2019-03-25T01:24:11.393Z,10.70
2019-03-25T01:26:44.455Z,11.90
2019-03-25T01:29:19.277Z,14.33
2019-03-25T01:32:00.154Z,7.10
2019-03-25T01:34:33.146Z,7.60
2019-03-25T01:37:06.405Z,9.93
2019-03-25T01:39:39.488Z,12.70
2019-03-25T01:42:14.392Z,9.83
2019-03-25T01:44:47.621Z,6.27
2019-03-25T01:47:21.066Z,14.27
2019-03-25T01:49:54.405Z,11.37
2019-03-25T01:52:29.758Z,11.33
2019-03-25T01:55:12.991Z,6.70
2019-03-25T01:57:37.942Z,10.20
2019-03-25T02:00:14.971Z,11.13
2019-03-25T02:02:48.233Z,6.43
2019-03-25T02:05:21.445Z,11.23
2019-03-25T02:07:54.484Z,10.37
2019-03-25T02:10:27.724Z,10.07
2019-03-25T02:13:00.919Z,10.93
2019-03-25T02:15:34.314Z,11.10
2019-03-25T02:18:07.564Z,13.57
2019-03-25T02:20:40.609Z,10.67
2019-03-25T02:23:16.423Z,14.77
2019-03-25T02:25:49.605Z,12.87
2019-03-25T02:28:22.643Z,10.10
2019-03-25T02:30:55.860Z,8.23
2019-03-25T02:33:28.911Z,6.30
2019-03-25T02:36:02.193Z,11.67
2019-03-25T02:38:35.255Z,8.93
2019-03-25T02:41:08.397Z,9.57
2019-03-25T02:43:41.488Z,11.33
2019-03-25T02:46:14.844Z,11.73
2019-03-25T02:48:48.219Z,9.17
2019-03-25T02:51:21.371Z,12.10
2019-03-25T02:53:54.546Z,10.80
2019-03-25T02:56:27.677Z,9.27
2019-03-25T02:59:00.801Z,5.43
2019-03-25T03:01:33.993Z,8.30
2019-03-25T03:04:07.327Z,7.80
2019-03-25T03:06:40.700Z,9.10
2019-03-25T03:09:23.139Z,10.97
2019-03-25T03:11:55.991Z,12.60
2019-03-25T03:14:29.566Z,11.70
2019-03-25T03:17:02.711Z,8.93
2019-03-25T03:19:35.909Z,10.87
2019-03-25T03:22:08.951Z,9.77
2019-03-25T03:24:42.123Z,9.40
2019-03-25T03:27:15.280Z,11.20
2019-03-25T03:29:48.316Z,10.70
2019-03-25T03:32:21.463Z,12.27
2019-03-25T03:34:54.768Z,9.97
2019-03-25T03:37:28.219Z,7.73
2019-03-25T03:40:01.553Z,6.03
2019-03-25T03:42:34.532Z,8.43
2019-03-25T03:45:07.708Z,8.97
2019-03-25T03:47:40.803Z,6.87
2019-03-25T03:50:25.516Z,8.60
2019-03-25T03:52:58.692Z,11.43
2019-03-25T03:55:32.881Z,12.57
2019-03-25T03:58:06.091Z,10.47
2019-03-25T04:00:39.677Z,6.90
2019-03-25T04:03:15.598Z,11.47
2019-03-25T04:05:48.733Z,9.07
2019-03-25T04:08:22.029Z,9.63
2019-03-25T04:10:55.124Z,10.20
2019-03-25T04:13:28.785Z,8.83
2019-03-25T04:16:02.043Z,9.20
2019-03-25T04:18:34.998Z,9.17
2019-03-25T04:21:08.819Z,7.60
2019-03-25T04:23:46.457Z,8.27
2019-03-25T04:26:28.553Z,12.60
2019-03-25T04:28:54.885Z,9.10
2019-03-25T04:31:28.049Z,6.77
2019-03-25T04:34:01.145Z,8.20
2019-03-25T04:36:34.085Z,9.93
2019-03-25T04:39:07.324Z,8.80
2019-03-25T04:41:40.425Z,7.53
2019-03-25T04:44:13.455Z,13.03
2019-03-25T04:46:46.711Z,8.70
2019-03-25T04:49:19.781Z,9.07
2019-03-25T04:51:52.828Z,9.00
2019-03-25T04:54:28.062Z,8.53
2019-03-25T04:57:01.225Z,8.63
2019-03-25T04:59:34.823Z,6.43
2019-03-25T05:02:07.732Z,9.03
2019-03-25T05:04:40.712Z,5.77
2019-03-25T05:07:13.612Z,10.60
2019-03-25T05:09:46.891Z,7.00
2019-03-25T05:12:20.160Z,5.87
2019-03-25T05:14:53.068Z,13.10
2019-03-25T05:17:25.992Z,11.43
2019-03-25T05:19:58.874Z,8.80
2019-03-25T05:22:31.754Z,7.60
2019-03-25T05:25:05.038Z,10.03
2019-03-25T05:27:37.928Z,10.93
2019-03-25T05:30:10.966Z,7.87
2019-03-25T05:32:43.868Z,11.77
2019-03-25T05:35:16.736Z,10.83
2019-03-25T05:37:49.842Z,9.83
2019-03-25T05:40:22.818Z,8.97
2019-03-25T05:42:56.630Z,13.70
2019-03-25T05:45:29.714Z,8.77
2019-03-25T05:48:02.645Z,9.13
2019-03-25T05:50:35.582Z,7.77
2019-03-25T05:53:08.486Z,8.83
2019-03-25T05:55:41.499Z,7.70
2019-03-25T05:58:15.053Z,11.10
2019-03-25T06:00:48.386Z,13.23
2019-03-25T06:03:21.138Z,9.57
2019-03-25T06:05:54.350Z,11.13
2019-03-25T06:08:27.147Z,8.67
2019-03-25T06:11:00.260Z,12.60
2019-03-25T06:13:33.156Z,16.20
2019-03-25T06:16:06.188Z,13.67
2019-03-25T06:18:38.946Z,9.03
2019-03-25T06:21:11.859Z,10.87
2019-03-25T06:23:44.893Z,15.33
2019-03-25T06:26:18.519Z,9.63
2019-03-25T06:28:51.741Z,15.40
2019-03-25T06:31:24.711Z,8.80
2019-03-25T06:33:57.541Z,10.37
2019-03-25T06:36:30.643Z,11.00
2019-03-25T06:39:04.900Z,8.23
2019-03-25T06:41:37.811Z,7.20
2019-03-25T06:44:10.903Z,6.37
2019-03-25T06:46:44.360Z,4.97
2019-03-25T06:49:21.076Z,7.87
2019-03-25T06:51:54.026Z,7.67
2019-03-25T06:54:27.344Z,6.43
2019-03-25T06:57:00.820Z,5.43
2019-03-25T06:59:33.953Z,6.13
2019-03-25T07:02:07.128Z,7.67
2019-03-25T07:04:40.309Z,5.80
2019-03-25T07:07:13.645Z,6.27
2019-03-25T07:09:46.994Z,6.13
2019-03-25T07:12:21.781Z,6.57
2019-03-25T07:14:55.092Z,9.07
2019-03-25T07:17:28.284Z,9.13
2019-03-25T07:20:01.640Z,9.77
2019-03-25T07:22:34.734Z,9.77
2019-03-25T07:25:08.015Z,10.17
2019-03-25T07:27:41.220Z,11.37
2019-03-25T07:30:14.476Z,9.37
2019-03-25T07:32:47.759Z,9.23
2019-03-25T07:35:22.456Z,8.63
2019-03-25T07:37:58.873Z,10.43
2019-03-25T07:40:33.258Z,8.33
2019-03-25T07:43:09.244Z,8.77
2019-03-25T07:45:43.694Z,7.70
2019-03-25T07:48:19.557Z,6.90
2019-03-25T07:50:53.131Z,9.20
2019-03-25T07:53:26.382Z,8.20
2019-03-25T07:55:59.572Z,10.03
2019-03-25T07:58:32.995Z,11.20
2019-03-25T08:01:06.449Z,9.07
2019-03-25T08:03:39.565Z,7.13
2019-03-25T08:06:12.959Z,10.97
2019-03-25T08:08:46.150Z,7.90
2019-03-25T08:11:19.362Z,5.47
2019-03-25T08:13:52.590Z,5.77
2019-03-25T08:16:26.123Z,9.00
2019-03-25T08:18:59.417Z,8.17
2019-03-25T08:21:32.968Z,9.27
2019-03-25T08:24:06.300Z,7.40
2019-03-25T08:26:39.504Z,5.50
2019-03-25T08:29:12.591Z,7.28
2019-03-25T08:31:46.279Z,5.03
2019-03-25T08:34:19.848Z,6.33
2019-03-25T08:36:53.225Z,7.50
2019-03-25T08:39:26.763Z,6.60
2019-03-25T08:42:00.163Z,5.57
2019-03-25T08:44:33.247Z,7.23
2019-03-25T08:47:06.732Z,6.67
2019-03-25T08:49:39.892Z,5.07
2019-03-25T08:52:13.230Z,3.97
2019-03-25T08:54:46.589Z,6.80
2019-03-25T08:57:19.911Z,7.43
2019-03-25T08:59:53.639Z,4.07
2019-03-25T09:02:27.464Z,5.30
2019-03-25T09:05:00.685Z,6.40
2019-03-25T09:07:34.240Z,4.80
2019-03-25T09:10:08.885Z,5.27
2019-03-25T09:12:42.145Z,4.40
2019-03-25T09:15:15.655Z,5.30
2019-03-25T09:17:49.022Z,6.00
2019-03-25T09:20:22.315Z,6.67
2019-03-25T09:22:56.068Z,4.83
2019-03-25T09:25:29.424Z,6.13
2019-03-25T09:28:02.964Z,5.90
2019-03-25T09:31:12.097Z,3.70
2019-03-25T09:33:48.224Z,4.17
2019-03-25T09:36:22.312Z,7.20
2019-03-25T09:38:55.587Z,6.23
2019-03-25T09:41:28.925Z,7.27
2019-03-25T09:44:02.103Z,5.77
2019-03-25T09:46:35.440Z,7.90
2019-03-25T09:49:08.756Z,3.70
2019-03-25T09:51:42.366Z,3.57
2019-03-25T09:54:15.497Z,6.90
2019-03-25T09:56:48.450Z,5.93
2019-03-25T09:59:21.388Z,6.73
2019-03-25T10:01:54.219Z,4.33
2019-03-25T10:04:26.953Z,5.57
2019-03-25T10:06:59.956Z,3.30
2019-03-25T10:09:32.872Z,4.57
2019-03-25T10:12:06.217Z,5.97
2019-03-25T10:14:39.464Z,6.27
2019-03-25T10:17:12.445Z,6.80
2019-03-25T10:19:45.476Z,4.37
2019-03-25T10:22:18.421Z,7.30
2019-03-25T10:24:51.512Z,4.07
2019-03-25T10:27:24.431Z,5.87
2019-03-25T10:29:57.408Z,7.40
2019-03-25T10:32:30.418Z,6.57
2019-03-25T10:35:03.806Z,6.43
2019-03-25T10:37:36.980Z,5.00
2019-03-25T10:40:10.312Z,4.87
2019-03-25T10:42:43.350Z,8.93
2019-03-25T10:45:16.777Z,3.73
2019-03-25T10:47:49.928Z,8.03
2019-03-25T10:50:22.606Z,6.67
2019-03-25T10:52:55.481Z,4.80
2019-03-25T10:55:28.485Z,3.37
2019-03-25T10:58:01.935Z,5.13
2019-03-25T11:00:35.281Z,6.50
2019-03-25T11:03:08.766Z,2.00
2019-03-25T11:05:41.743Z,3.27
2019-03-25T11:08:17.316Z,3.20
2019-03-25T11:10:50.604Z,4.23
2019-03-25T11:13:26.886Z,8.50
2019-03-25T11:16:01.719Z,3.20
2019-03-25T11:18:35.144Z,2.93
2019-03-25T11:21:08.114Z,4.47
2019-03-25T11:23:41.144Z,3.77
2019-03-25T11:26:14.051Z,4.77
2019-03-25T11:28:47.034Z,3.40
2019-03-25T11:31:19.935Z,4.00
2019-03-25T11:33:52.596Z,3.80
2019-03-25T11:36:25.507Z,3.20
2019-03-25T11:38:58.541Z,3.43
2019-03-25T11:41:32.042Z,3.00
2019-03-25T11:44:05.406Z,6.30
2019-03-25T11:46:38.969Z,4.40
2019-03-25T11:49:12.099Z,2.50
2019-03-25T11:51:45.007Z,7.27
2019-03-25T11:54:18.608Z,2.67
2019-03-25T11:56:51.829Z,4.70
2019-03-25T11:59:24.831Z,5.73
2019-03-25T12:01:57.743Z,4.70
2019-03-25T12:04:30.535Z,5.27
2019-03-25T12:07:03.468Z,4.87
2019-03-25T12:09:36.705Z,6.20
2019-03-25T12:12:09.822Z,5.83
2019-03-25T12:14:42.732Z,4.03
2019-03-25T12:17:18.278Z,3.90
2019-03-25T12:19:51.361Z,6.20
2019-03-25T12:22:24.020Z,3.03
2019-03-25T12:24:56.933Z,5.13
2019-03-25T12:27:30.032Z,8.40
2019-03-25T12:30:02.893Z,3.60
2019-03-25T12:32:35.534Z,3.13
2019-03-25T12:35:08.583Z,4.67
2019-03-25T12:37:41.539Z,3.27
2019-03-25T12:40:14.558Z,3.30
2019-03-25T12:42:47.536Z,4.37
2019-03-25T12:45:20.422Z,2.87
2019-03-25T12:47:53.659Z,4.50
2019-03-25T12:50:26.704Z,3.57
2019-03-25T12:52:59.640Z,2.00
2019-03-25T12:55:32.534Z,3.03
2019-03-25T12:58:07.377Z,3.77
2019-03-25T13:00:41.831Z,5.73
2019-03-25T13:03:15.009Z,3.27
2019-03-25T13:05:47.888Z,4.17
2019-03-25T13:08:20.790Z,4.30
2019-03-25T13:10:53.614Z,2.13
2019-03-25T13:13:26.305Z,1.27
2019-03-25T13:15:59.530Z,2.60
2019-03-25T13:18:32.529Z,2.53
2019-03-25T13:21:05.474Z,3.97
2019-03-25T13:23:38.470Z,2.57
2019-03-25T13:26:11.576Z,2.97
2019-03-25T13:28:44.665Z,2.03
2019-03-25T13:31:17.884Z,3.67
2019-03-25T13:33:52.038Z,1.70
2019-03-25T13:36:25.332Z,7.13
2019-03-25T13:38:58.084Z,3.30
2019-03-25T13:41:31.803Z,3.60
2019-03-25T13:44:06.604Z,3.13
2019-03-25T13:46:39.420Z,1.90
2019-03-25T13:49:12.712Z,2.77
2019-03-25T13:51:45.998Z,2.23
2019-03-25T13:54:19.808Z,1.87
2019-03-25T13:56:53.098Z,2.83
2019-03-25T13:59:27.537Z,4.03
2019-03-25T14:02:00.789Z,6.10
2019-03-25T14:04:33.939Z,5.23
2019-03-25T14:07:07.328Z,2.93
2019-03-25T14:09:40.483Z,2.50
2019-03-25T14:12:14.139Z,2.53
2019-03-25T14:14:47.718Z,2.00
2019-03-25T14:17:21.229Z,3.43
2019-03-25T14:19:54.378Z,3.83
2019-03-25T14:22:28.631Z,5.67
2019-03-25T14:25:01.886Z,4.77
2019-03-25T14:27:37.634Z,3.87
2019-03-25T14:30:14.922Z,3.60
2019-03-25T14:32:48.113Z,3.40
2019-03-25T14:35:21.898Z,3.17
2019-03-25T14:37:55.407Z,3.13
2019-03-25T14:40:30.974Z,2.00
2019-03-25T14:43:05.080Z,4.13
2019-03-25T14:45:38.510Z,4.80
2019-03-25T14:48:12.033Z,1.77
2019-03-25T14:50:46.160Z,4.10
2019-03-25T14:53:19.387Z,2.70
2019-03-25T14:55:52.886Z,4.13
2019-03-25T14:58:26.224Z,7.47
2019-03-25T15:00:59.571Z,2.30
2019-03-25T15:03:32.978Z,6.47
2019-03-25T15:06:06.653Z,4.40
2019-03-25T15:08:42.995Z,2.57
2019-03-25T15:11:16.413Z,3.40
2019-03-25T15:13:49.673Z,4.30
2019-03-25T15:16:23.065Z,3.17
2019-03-25T15:18:56.426Z,2.87
2019-03-25T15:21:31.398Z,2.57
2019-03-25T15:24:04.783Z,2.77
2019-03-25T15:26:38.387Z,3.67
2019-03-25T15:29:11.706Z,2.17
2019-03-25T15:31:47.649Z,4.20
2019-03-25T15:34:21.306Z,2.20
2019-03-25T15:36:54.681Z,4.03
2019-03-25T15:39:28.119Z,2.97
2019-03-25T15:42:01.288Z,3.07
2019-03-25T15:44:34.761Z,1.90
2019-03-25T15:47:07.663Z,3.83
2019-03-25T15:49:44.362Z,2.03
2019-03-25T15:52:17.746Z,3.10
2019-03-25T15:54:50.801Z,4.83
2019-03-25T15:57:26.097Z,5.47
2019-03-25T15:59:59.831Z,5.47
2019-03-25T16:02:33.167Z,4.63
2019-03-25T16:05:06.680Z,1.53
2019-03-25T16:07:40.073Z,1.03
2019-03-25T16:10:16.053Z,1.60
2019-03-25T16:12:49.916Z,2.80
2019-03-25T16:15:39.994Z,3.43
2019-03-25T16:18:39.388Z,5.70
2019-03-25T16:21:12.816Z,4.90
2019-03-25T16:23:46.455Z,2.30
2019-03-25T16:26:20.138Z,4.00
2019-03-25T16:28:53.485Z,3.53
2019-03-25T16:31:26.164Z,4.30
2019-03-25T16:33:59.064Z,4.50
2019-03-25T16:36:32.125Z,3.93
2019-03-25T16:39:05.966Z,3.33
2019-03-25T16:41:39.150Z,5.07
2019-03-25T16:44:12.081Z,6.07
2019-03-25T16:46:44.864Z,2.27
2019-03-25T16:49:17.746Z,6.20
2019-03-25T16:51:50.678Z,4.53
2019-03-25T16:54:23.493Z,2.93
2019-03-25T16:56:56.975Z,5.17
2019-03-25T16:59:30.289Z,3.90
2019-03-25T17:02:03.341Z,5.10
2019-03-25T17:04:36.203Z,2.43
2019-03-25T17:07:09.630Z,3.50
2019-03-25T17:09:42.893Z,2.83
2019-03-25T17:12:16.117Z,4.97
2019-03-25T17:14:49.069Z,5.83
2019-03-25T17:17:22.006Z,4.20
2019-03-25T17:19:55.383Z,4.50
2019-03-25T17:22:29.275Z,6.83
2019-03-25T17:25:02.614Z,5.60
2019-03-25T17:27:36.045Z,7.00
2019-03-25T17:30:11.651Z,3.47
2019-03-25T17:32:44.841Z,6.17
2019-03-25T17:35:18.086Z,5.40
2019-03-25T17:37:51.266Z,4.83
2019-03-25T17:40:26.192Z,6.30
2019-03-25T17:42:59.337Z,5.83
2019-03-25T17:45:33.030Z,5.17
2019-03-25T17:48:09.213Z,9.57
2019-03-25T17:50:42.321Z,3.50
2019-03-25T17:53:16.008Z,3.73
2019-03-25T17:55:50.697Z,3.97
2019-03-25T17:58:25.920Z,7.23
2019-03-25T18:01:12.417Z,4.83
2019-03-25T18:03:45.615Z,3.20
2019-03-25T18:06:19.154Z,4.97
2019-03-25T18:08:52.802Z,5.80
2019-03-25T18:11:26.202Z,4.40
2019-03-25T18:14:00.154Z,5.10
2019-03-25T18:16:35.427Z,7.77
2019-03-25T18:19:08.665Z,6.40
2019-03-25T18:21:41.812Z,6.93
2019-03-25T18:24:15.600Z,5.60
2019-03-25T18:26:49.794Z,8.97
2019-03-25T18:29:26.469Z,5.23
2019-03-25T18:31:59.832Z,3.03
2019-03-25T18:34:33.692Z,8.03
2019-03-25T18:37:11.280Z,7.53
2019-03-25T18:39:53.793Z,4.37
2019-03-25T18:42:38.451Z,9.27
2019-03-25T18:45:12.273Z,6.40
2019-03-25T18:47:45.743Z,7.50
2019-03-25T18:50:19.509Z,6.40
2019-03-25T18:52:53.115Z,8.20
2019-03-25T18:55:27.287Z,8.53
2019-03-25T18:58:13.255Z,6.73
2019-03-25T19:00:47.021Z,5.47
2019-03-25T19:03:23.160Z,3.83
2019-03-25T19:05:56.762Z,4.93
2019-03-25T19:08:30.801Z,8.10
2019-03-25T19:11:05.049Z,6.80
2019-03-25T19:13:39.553Z,4.00
2019-03-25T19:16:13.085Z,7.10
2019-03-25T19:18:49.366Z,8.33
2019-03-25T19:21:28.104Z,4.03
2019-03-25T19:24:05.157Z,4.70
2019-03-25T19:26:39.597Z,4.70
2019-03-25T19:29:16.048Z,6.97
2019-03-25T19:31:49.251Z,10.63
2019-03-25T19:34:23.060Z,5.53
2019-03-25T19:36:57.131Z,3.67
2019-03-25T19:39:30.667Z,5.40
2019-03-25T19:42:04.051Z,7.53
2019-03-25T19:44:38.132Z,7.57
2019-03-25T19:47:12.391Z,8.23
2019-03-25T19:49:45.874Z,5.83
2019-03-25T19:52:21.653Z,9.83
2019-03-25T19:54:57.769Z,10.63
2019-03-25T19:57:36.549Z,8.93
2019-03-25T20:00:18.624Z,7.17
2019-03-25T20:02:52.440Z,9.60
2019-03-25T20:05:28.503Z,3.67
2019-03-25T20:08:02.140Z,7.33
2019-03-25T20:10:35.968Z,6.07
2019-03-25T20:13:09.454Z,5.23
2019-03-25T20:15:46.442Z,3.80
2019-03-25T20:18:17.735Z,7.20
2019-03-25T20:20:51.314Z,9.80
2019-03-25T20:23:24.720Z,11.10
2019-03-25T20:26:09.470Z,8.90
2019-03-25T20:28:42.618Z,8.50
2019-03-25T20:31:15.787Z,6.13
2019-03-25T20:33:51.135Z,5.20
2019-03-25T20:36:24.412Z,5.90
2019-03-25T20:38:58.025Z,8.27
2019-03-25T20:41:31.042Z,10.80
2019-03-25T20:44:03.944Z,6.20
2019-03-25T20:46:36.858Z,4.77
2019-03-25T20:49:09.852Z,10.37
2019-03-25T20:51:43.208Z,4.73
2019-03-25T20:54:15.970Z,6.13
2019-03-25T20:56:49.171Z,7.83
2019-03-25T20:59:22.009Z,6.63
2019-03-25T21:01:55.018Z,3.97
2019-03-25T21:04:28.259Z,6.90
2019-03-25T21:07:01.586Z,5.90
2019-03-25T21:09:34.629Z,4.97
2019-03-25T21:12:07.734Z,5.50
2019-03-25T21:14:40.655Z,4.43
2019-03-25T21:17:13.559Z,5.50
2019-03-25T21:19:46.398Z,7.10
2019-03-25T21:22:19.327Z,4.50
2019-03-25T21:24:52.125Z,7.93
2019-03-25T21:27:25.427Z,7.53
2019-03-25T21:29:58.320Z,7.10
2019-03-25T21:32:31.357Z,6.57
2019-03-25T21:35:04.648Z,7.87
2019-03-25T21:37:37.643Z,5.23
2019-03-25T21:40:11.544Z,8.90
2019-03-25T21:42:44.458Z,7.47
2019-03-25T21:45:17.647Z,3.90
2019-03-25T21:47:54.506Z,6.20
2019-03-25T21:50:28.117Z,6.77
2019-03-25T21:53:01.749Z,5.70
2019-03-25T21:55:34.578Z,7.20
2019-03-25T21:58:07.593Z,4.47
2019-03-25T22:00:43.210Z,5.43
2019-03-25T22:03:16.218Z,7.43
2019-03-25T22:05:50.029Z,6.00
2019-03-25T22:08:24.069Z,4.70
2019-03-25T22:10:57.096Z,5.97
2019-03-25T22:13:32.476Z,4.70
2019-03-25T22:16:05.638Z,7.40
2019-03-25T22:18:38.687Z,3.47
2019-03-25T22:21:12.023Z,7.23
2019-03-25T22:23:45.227Z,4.20
2019-03-25T22:26:18.623Z,5.83
2019-03-25T22:28:51.610Z,6.60
2019-03-25T22:31:24.819Z,5.93
2019-03-25T22:33:57.863Z,4.23
2019-03-25T22:36:30.628Z,6.60
2019-03-25T22:39:05.861Z,6.07
2019-03-25T22:41:39.060Z,7.20
2019-03-25T22:44:12.027Z,5.10
2019-03-25T22:46:45.660Z,6.47
2019-03-25T22:49:18.602Z,6.60
2019-03-25T22:51:51.638Z,5.63
2019-03-25T22:54:24.812Z,8.37
2019-03-25T22:56:58.107Z,9.40
2019-03-25T22:59:31.196Z,6.23
2019-03-25T23:02:04.580Z,6.77
2019-03-25T23:04:37.505Z,5.03
2019-03-25T23:07:10.680Z,6.47
2019-03-25T23:09:43.605Z,6.10
2019-03-25T23:12:16.729Z,8.60
2019-03-25T23:14:58.361Z,9.43
2019-03-25T23:17:31.318Z,6.63
2019-03-25T23:20:04.869Z,7.10
2019-03-25T23:22:37.685Z,5.83
2019-03-25T23:25:10.638Z,7.30
2019-03-25T23:27:43.743Z,6.13
2019-03-25T23:30:17.057Z,6.93
2019-03-25T23:32:50.335Z,7.27
2019-03-25T23:35:23.442Z,7.50
2019-03-25T23:37:56.615Z,8.30
2019-03-25T23:40:29.804Z,6.10
2019-03-25T23:43:02.979Z,6.43
2019-03-25T23:45:36.075Z,7.07
2019-03-25T23:48:09.368Z,7.37
2019-03-25T23:50:42.416Z,5.83
2019-03-25T23:53:15.916Z,7.73
2019-03-25T23:55:48.934Z,8.50
2019-03-25T23:58:22.052Z,6.90
